Bloomington, IL (61701)

4:57 PM CST on January 31, 2015 (GMT -0600)
Across from IWU | Change Station
CLOSE
Current Station
Personal Weather Station
Location: Bloomington, IL
Elevation: 810 ft
Nearby Weather Stations
Active Advisory: Winter Storm Warning Active Notice: Public Information Statement

Elev 810 ft 40.49 °N, 88.99 °W | Updated 1 minute ago

Rain
Rain
35.8 °F
Feels Like 32 °F
N
4.0
Wind Variable Wind from SW
Gusts 4.0 mph

Today
High -- | Low -- °F
--% Chance of Precip.
Yesterday
High -- | Low -- °F
Precip. -- in
7:06 AM 5:12 PM
Waxing Gibbous, 92% visible
Pressure 30.21 in
Visibility 3.0 miles
Clouds Mostly Cloudy 1100 ft
Overcast 2200 ft
Windchill 32 °F
Dew Point 33 °F
Humidity 89%
Rainfall 0.00 in
Snow Depth Not available.
UV 0 out of 12
Pollen .10 out of 12
Air Quality Not available.
Flu Activity Not available.
SPECI KBMI 312241Z 22009KT 3SM -RA BR BKN011 OVC022 01/00 A3021 RMK AO2 UPE2157RAB2157 P0000

More Conditions Fewer Conditions

Pressure 30.21 in
Visibility 3.0 miles
Clouds Mostly Cloudy 1100 ft
Overcast 2200 ft
Windchill 32 °F
Dew Point 33 °F
Humidity 89%
Rainfall 0.00 in
Snow Depth Not available.
UV 0 out of 12
Pollen .10 out of 12
Air Quality Not available.
Flu Activity Not available.
SPECI KBMI 312241Z 22009KT 3SM -RA BR BKN011 OVC022 01/00 A3021 RMK AO2 UPE2157RAB2157 P0000

More Conditions Fewer Conditions

10-Day Weather Forecast

Almanac

Astronomy

Jan. 31, 2015 Rise Set
Actual Time
Civil Twilight
Nautical Twilight
Astronomical Twilight
Moon
Length of Visible Light
Length of Day
Tomorrow will be .
, % of the Moon is Illuminated

Today's Extremes

State Highs State Lows

Community

WunderPhotos

Upload Photos

1,792,239 photos uploaded!

WunderBlogs® & News

Nearby

Air Quality

  Air Quality AQ Index Pollutant
Not available.

Snow Depth

Station Depth Elevation

Earthquake Activity

City Distance Mag. Time & Date
Minimum magnitude displayed is 2.5.

Coastal Water Temperatures

Place Temperature

Nearby Weather Stations